Data for 03/12/2015

Time Sea-Level Adjusted Pressure Absolute Pressure Temperature Relative Humidity Dew Point   
(mb) (inHg) (mb) (inHg) (C) (F) (%) (C) (F)
00:05 1020 30.12 849 25.07 8.6 47.5 46 -2.2 28
00:10 1020 30.12 850 25.1 8.6 47.6 46 -2.2 28.1
00:15 1020 30.12 850 25.1 8.6 47.5 46 -2.4 27.6
00:20 1020 30.12 850 25.1 8.6 47.5 46 -2.4 27.7
00:25 1020 30.12 850 25.1 8.5 47.2 45 -2.8 27
00:30 1020 30.12 850 25.1 8.4 47.1 44 -3.3 26.1
00:35 1020 30.12 850 25.1 8.4 47.2 45 -2.9 26.8
00:40 1021 30.15 850 25.1 8.3 47 44 -3.2 26.3
00:45 1021 30.15 850 25.1 8.4 47 43 -3.4 25.8
00:50 1021 30.15 850 25.1 8.5 47.2 44 -3.2 26.3
00:55 1021 30.15 850 25.1 8.4 47.1 44 -3.1 26.4
01:00 1021 30.15 850 25.1 8.4 47.1 45 -2.9 26.8
01:05 1021 30.15 850 25.1 8.3 47 46 -2.7 27.2
01:10 1021 30.15 850 25.1 8.2 46.8 47 -2.4 27.8
01:15 1021 30.15 850 25.1 8.1 46.6 48 -2.2 28.1
01:20 1021 30.15 850 25.1 8.2 46.7 48 -2.2 28
01:25 1021 30.15 850 25.1 8.3 46.9 48 -2.1 28.2
01:30 1021 30.15 850 25.1 8.3 46.9 48 -2.1 28.3
01:35 1021 30.15 850 25.1 8.3 46.9 48 -2 28.5
01:40 1021 30.15 850 25.1 8.2 46.7 47 -2.5 27.5
01:45 1021 30.15 850 25.1 7.8 46 49 -2.3 27.9
01:50 1021 30.15 850 25.1 7.7 45.8 50 -2 28.5
01:55 1021 30.15 850 25.1 7.6 45.7 51 -1.8 28.7
02:00 1021 30.15 850 25.1 7.7 45.8 51 -1.8 28.7
02:05 1021 30.15 850 25.1 7.7 45.9 52 -1.6 29.1
02:10 1021 30.15 850 25.1 7.8 46 51 -1.6 29.1
02:15 1021 30.15 850 25.1 7.8 46 53 -1.3 29.7
02:20 1021 30.15 850 25.1 7.7 45.9 52 -1.5 29.4
02:25 1021 30.15 850 25.1 7.7 45.9 52 -1.4 29.5
02:30 1021 30.15 850 25.1 7.7 45.8 53 -1.3 29.6
02:35 1021 30.15 850 25.1 7.6 45.6 53 -1.4 29.4
02:40 1021 30.15 850 25.1 7.6 45.7 53 -1.2 29.8
02:45 1021 30.15 850 25.1 7.5 45.4 54 -1.2 29.9
02:50 1021 30.15 850 25.1 7.4 45.2 54 -1.2 29.9
02:55 1021 30.15 850 25.1 7.3 45.1 55 -1.1 30
03:00 1021 30.15 850 25.1 7.1 44.8 56 -1.1 30
03:05 1021 30.15 851 25.13 7.1 44.7 56 -1.2 29.9
03:10 1021 30.15 851 25.13 7.1 44.7 56 -1.2 29.9
03:15 1021 30.15 851 25.13 7 44.7 56 -1.2 29.9
03:20 1021 30.15 851 25.13 7 44.6 56 -1.2 29.8
03:25 1022 30.18 851 25.13 7 44.6 56 -1.1 29.9
03:30 1022 30.18 851 25.13 7 44.6 55 -1.3 29.6
03:35 1022 30.18 851 25.13 7.2 44.9 55 -1.3 29.7
03:40 1022 30.18 851 25.13 7.2 44.9 55 -1.3 29.7
03:45 1022 30.18 851 25.13 7.2 44.9 55 -1.3 29.7
03:50 1022 30.18 851 25.13 7.2 44.9 55 -1.3 29.7
03:55 1022 30.18 851 25.13 7.1 44.7 55 -1.3 29.7
04:00 1022 30.18 851 25.13 7 44.6 55 -1.3 29.6
04:05 1022 30.18 851 25.13 6.9 44.4 56 -1.1 29.9
04:10 1022 30.18 851 25.13 6.7 44 57 -1.1 30
04:15 1022 30.18 851 25.13 6.5 43.7 58 -1.2 29.8
04:20 1022 30.18 851 25.13 6.5 43.6 58 -1.2 29.9
04:25 1022 30.18 851 25.13 6.4 43.5 58 -1.3 29.7
04:30 1022 30.18 852 25.16 6.4 43.5 58 -1.3 29.7
04:35 1022 30.18 852 25.16 6.4 43.5 58 -1.2 29.8
04:40 1023 30.21 852 25.16 6.4 43.5 58 -1.2 29.8
04:45 1023 30.21 852 25.16 6.2 43.2 59 -1.1 30
04:50 1023 30.21 852 25.16 6.1 43.1 60 -1.1 30
04:55 1023 30.21 852 25.16 6 42.8 59 -1.3 29.7
05:00 1023 30.21 852 25.16 6.1 43.1 59 -1.3 29.7
05:05 1023 30.21 852 25.16 6.2 43.2 59 -1.3 29.7
05:10 1023 30.21 852 25.16 6.2 43.1 59 -1.2 29.9
05:15 1023 30.21 852 25.16 6 42.9 60 -1.2 29.8
05:20 1023 30.21 852 25.16 6 42.8 59 -1.3 29.7
05:25 1023 30.21 852 25.16 6 42.7 60 -1.3 29.7
05:30 1023 30.21 852 25.16 6 42.7 59 -1.3 29.6
05:35 1023 30.21 852 25.16 6 42.8 59 -1.4 29.6
05:40 1023 30.21 852 25.16 6 42.8 59 -1.4 29.6
05:45 1023 30.21 852 25.16 6 42.9 59 -1.4 29.5
05:50 1023 30.21 852 25.16 6 42.9 59 -1.4 29.5
05:55 1023 30.21 852 25.16 5.9 42.7 59 -1.4 29.4
06:00 1023 30.21 853 25.19 5.9 42.6 60 -1.3 29.6
06:05 1023 30.21 853 25.19 6 42.7 59 -1.5 29.3
06:10 1024 30.24 853 25.19 6.1 42.9 59 -1.2 29.8
06:15 1024 30.24 853 25.19 6 42.7 60 -1.1 30
06:20 1024 30.24 853 25.19 5.9 42.5 61 -1.2 29.9
06:25 1024 30.24 853 25.19 6 42.9 59 -1.4 29.5
06:30 1024 30.24 853 25.19 6.2 43.2 58 -1.3 29.7
06:35 1024 30.24 853 25.19 6.3 43.3 58 -1.3 29.6
06:40 1024 30.24 853 25.19 6.3 43.3 58 -1.4 29.5
06:45 1024 30.24 853 25.19 6.3 43.4 58 -1.3 29.6
06:50 1024 30.24 853 25.19 6.4 43.5 57 -1.4 29.5
06:55 1024 30.24 853 25.19 6.5 43.7 57 -1.4 29.5
07:00 1024 30.24 853 25.19 6.5 43.6 57 -1.3 29.6
07:05 1024 30.24 853 25.19 6.5 43.7 56 -1.5 29.3
07:10 1024 30.24 853 25.19 6.6 43.9 57 -1.4 29.5
07:15 1024 30.24 853 25.19 6.5 43.8 57 -1.3 29.6
07:20 1024 30.24 853 25.19 6.5 43.7 57 -1.3 29.7
07:25 1024 30.24 853 25.19 6.4 43.5 58 -1.2 29.8
07:30 1024 30.24 853 25.19 6.4 43.5 58 -1.3 29.7
07:35 1024 30.24 853 25.19 6.5 43.8 57 -1.3 29.6
07:40 1024 30.24 854 25.22 6.7 44 57 -1.2 29.8
07:45 1024 30.24 854 25.22 6.7 44.1 57 -1.1 30
07:50 1024 30.24 854 25.22 6.7 44 57 -1.1 29.9
07:55 1024 30.24 854 25.22 6.7 44.1 57 -1.2 29.9
08:00 1024 30.24 854 25.22 6.9 44.3 57 -1.1 30
08:05 1025 30.27 854 25.22 7 44.6 56 -1.1 30
08:10 1025 30.27 854 25.22 7.3 45.1 54 -1.3 29.6
08:15 1025 30.27 854 25.22 7.6 45.7 54 -1.1 29.9
08:20 1025 30.27 854 25.22 7.7 45.9 54 -1.1 30.1
08:25 1025 30.27 854 25.22 7.9 46.1 53 -1.1 29.9
08:30 1025 30.27 854 25.22 8 46.3 53 -1.1 30.1
08:35 1025 30.27 854 25.22 7.9 46.3 54 -0.9 30.4
08:40 1025 30.27 854 25.22 7.9 46.2 53 -1 30.2
08:45 1025 30.27 854 25.22 8.1 46.7 52 -1 30.2
08:50 1025 30.27 854 25.22 8.3 47 52 -0.9 30.5
08:55 1025 30.27 854 25.22 8.5 47.4 53 -0.5 31
09:00 1025 30.27 854 25.22 8.6 47.4 53 -0.5 31
09:05 1025 30.27 854 25.22 8.6 47.5 52 -0.6 31
09:10 1025 30.27 855 25.25 8.6 47.4 52 -0.6 31
09:15 1025 30.27 855 25.25 8.4 47.2 52 -0.8 30.6
09:20 1025 30.27 855 25.25 8.6 47.4 51 -0.8 30.5
09:25 1026 30.3 855 25.25 8.7 47.7 51 -0.8 30.6
09:30 1026 30.3 855 25.25 8.8 47.8 51 -0.9 30.4
09:35 1026 30.3 855 25.25 8.9 48 50 -1 30.2
09:40 1026 30.3 855 25.25 9 48.3 49 -1 30.2
09:45 1026 30.3 855 25.25 9 48.3 50 -0.9 30.4
09:50 1026 30.3 855 25.25 9.1 48.4 49 -0.9 30.4
09:55 1026 30.3 855 25.25 9.3 48.7 48 -1 30.2
10:00 1026 30.3 855 25.25 9.4 49 47 -1.3 29.7
10:05 1026 30.3 855 25.25 9.6 49.3 46 -1.3 29.6
10:10 1026 30.3 855 25.25 10 49.9 45 -1.5 29.3
10:15 1026 30.3 855 25.25 10.7 51.2 42 -1.6 29.2
10:20 1026 30.3 855 25.25 11.1 52 43 -1 30.2
10:25 1026 30.3 855 25.25 10.8 51.4 43 -1.3 29.7
10:30 1026 30.3 855 25.25 11 51.8 43 -1.2 29.9
10:35 1026 30.3 855 25.25 10.7 51.3 44 -1 30.2
10:40 1026 30.3 855 25.25 10.6 51 44 -1.1 30
10:45 1026 30.3 855 25.25 10.8 51.5 43 -1.2 29.9
10:50 1026 30.3 855 25.25 10.9 51.6 43 -1 30.2
10:55 1026 30.3 855 25.25 10.6 51.1 44 -1.1 30
11:00 1026 30.3 855 25.25 10.5 50.9 44 -1.2 29.8
11:05 1026 30.3 855 25.25 10.8 51.4 43 -1.2 29.8
11:10 1026 30.3 855 25.25 10.8 51.5 43 -1.3 29.7
11:15 1026 30.3 856 25.28 11 51.7 42 -1.4 29.5
11:20 1026 30.3 856 25.28 11.2 52.1 42 -1.3 29.7
11:25 1026 30.3 856 25.28 11.3 52.3 42 -1.1 30
11:30 1026 30.3 856 25.28 11.6 52.8 40 -1.5 29.3
11:35 1026 30.3 856 25.28 12.6 54.6 37 -1.6 29.2
11:40 1026 30.3 856 25.28 12.9 55.2 36 -1.6 29.2
11:45 1026 30.3 856 25.28 12.7 54.9 38 -1.2 29.9
11:50 1026 30.3 856 25.28 12.7 54.8 37 -1.6 29.1
11:55 1026 30.3 856 25.28 12.8 55 37 -1.4 29.4
12:00 1026 30.3 856 25.28 12.7 54.9 37 -1.5 29.3
12:05 1026 30.3 856 25.28 12.7 54.9 37 -1.6 29.2
12:10 1026 30.3 855 25.25 12.9 55.1 36 -1.7 28.9
12:15 1026 30.3 855 25.25 13.1 55.6 36 -1.5 29.3
12:20 1026 30.3 855 25.25 12.8 55.1 39 -0.8 30.5
12:25 1026 30.3 855 25.25 12.2 53.9 39 -1.3 29.6
12:30 1026 30.3 855 25.25 12.3 54.1 38 -1.4 29.5
12:35 1026 30.3 855 25.25 12.4 54.4 38 -1.5 29.4
12:40 1026 30.3 855 25.25 12.5 54.4 38 -1.4 29.4
12:45 1026 30.3 855 25.25 12.3 54.1 39 -1.2 29.9
12:50 1026 30.3 855 25.25 12.4 54.3 38 -1.6 29.1
12:55 1026 30.3 855 25.25 12.9 55.2 37 -1.4 29.4
13:00 1026 30.3 855 25.25 13.6 56.4 34 -2.1 28.2
13:05 1026 30.3 855 25.25 14.1 57.4 33 -1.9 28.6
13:10 1026 30.3 855 25.25 13.4 56.2 34 -1.9 28.6
13:15 1026 30.3 855 25.25 12.9 55.3 33 -2.9 26.8
13:20 1026 30.3 855 25.25 12.7 54.9 35 -2.1 28.2
13:25 1026 30.3 855 25.25 12.8 55 35 -2.4 27.7
13:30 1026 30.3 855 25.25 12.9 55.2 34 -2.6 27.2
13:35 1026 30.3 855 25.25 12.9 55.1 35 -2.2 28
13:40 1026 30.3 855 25.25 12.6 54.7 35 -2.4 27.6
13:45 1026 30.3 855 25.25 12.9 55.3 33 -2.7 27.1
13:50 1026 30.3 855 25.25 13.7 56.6 32 -2.8 27
13:55 1026 30.3 855 25.25 13.1 55.5 32 -3 26.6
14:00 1026 30.3 855 25.25 13.4 56.1 32 -2.9 26.8
14:05 1026 30.3 855 25.25 14.1 57.3 33 -2 28.4
14:10 1026 30.3 855 25.25 14 57.2 32 -2.5 27.5
14:15 1026 30.3 855 25.25 14.2 57.6 30 -2.9 26.7
14:20 1026 30.3 855 25.25 13.8 56.8 32 -2.7 27.2
14:25 1026 30.3 855 25.25 13.8 56.8 31 -2.8 26.9
14:30 1026 30.3 855 25.25 14 57.2 31 -2.8 26.9
14:35 1026 30.3 855 25.25 14.4 57.9 30 -2.9 26.8
14:40 1026 30.3 855 25.25 14.3 57.7 28 -3.7 25.4
14:45 1026 30.3 855 25.25 14.6 58.3 28 -3.4 25.9
14:50 1026 30.3 855 25.25 14.9 58.9 27 -3.6 25.5
14:55 1026 30.3 855 25.25 15.2 59.3 28 -3.3 26.1
15:00 1025 30.27 855 25.25 15.2 59.4 27 -3.5 25.7
15:05 1025 30.27 855 25.25 14.9 58.8 28 -3.5 25.7
15:10 1026 30.3 855 25.25 14.7 58.4 28 -3.8 25.2
15:15 1026 30.3 855 25.25 14.1 57.4 29 -3.7 25.3
15:20 1026 30.3 855 25.25 14.5 58.2 28 -3.6 25.5
15:25 1026 30.3 855 25.25 14.6 58.2 28 -3.6 25.5
15:30 1026 30.3 855 25.25 15 59 27 -3.6 25.5
15:35 1026 30.3 855 25.25 14.4 58 30 -3.1 26.5
15:40 1026 30.3 855 25.25 13.8 56.9 30 -3.5 25.8
15:45 1026 30.3 855 25.25 13.7 56.6 31 -3.2 26.3
15:50 1026 30.3 855 25.25 13.7 56.6 30 -3.3 26
15:55 1026 30.3 855 25.25 13.7 56.6 31 -3.2 26.2
16:00 1026 30.3 855 25.25 13.7 56.7 30 -3.4 25.9
16:05 1026 30.3 855 25.25 13.5 56.3 31 -3.3 26.1
16:10 1026 30.3 855 25.25 13.4 56.1 31 -3.4 25.9
16:15 1026 30.3 855 25.25 13.3 56 31 -3.5 25.6
16:20 1026 30.3 855 25.25 13.3 55.9 30 -3.8 25.1
16:25 1026 30.3 855 25.25 13.1 55.5 29 -4.6 23.8
16:30 1026 30.3 855 25.25 13.3 55.9 27 -5 22.9
16:35 1026 30.3 855 25.25 13.8 56.8 27 -5.1 22.9
16:40 1026 30.3 855 25.25 13.9 57 26 -5.1 22.9
16:45 1026 30.3 855 25.25 13.9 57.1 27 -4.8 23.4
16:50 1026 30.3 855 25.25 13.8 56.8 27 -4.8 23.4
16:55 1026 30.3 855 25.25 13.6 56.5 28 -4.6 23.6
17:00 1026 30.3 855 25.25 13.6 56.5 28 -4.6 23.7
17:05 1026 30.3 855 25.25 13.7 56.6 28 -4.4 24.1
17:10 1026 30.3 855 25.25 13.7 56.7 28 -4.2 24.5
17:15 1026 30.3 855 25.25 13.7 56.6 29 -4 24.8
17:20 1026 30.3 855 25.25 13.5 56.2 29 -4 24.9
17:25 1026 30.3 855 25.25 12.9 55.3 30 -4 24.8
17:30 1026 30.3 855 25.25 12.6 54.7 31 -4.1 24.6
17:35 1026 30.3 855 25.25 12.7 54.9 31 -4 24.7
17:40 1026 30.3 855 25.25 12.5 54.6 31 -4 24.8
17:45 1026 30.3 855 25.25 12.4 54.3 31 -4.1 24.7
17:50 1026 30.3 855 25.25 12.2 54 32 -4 24.9
17:55 1026 30.3 855 25.25 12 53.6 33 -3.9 24.9
18:00 1026 30.3 855 25.25 11.8 53.2 33 -3.8 25.1
18:05 1026 30.3 855 25.25 11.6 52.9 33 -3.9 24.9
18:10 1026 30.3 855 25.25 11.4 52.5 33 -4.1 24.6
18:15 1026 30.3 855 25.25 11.2 52.2 34 -4 24.7
18:20 1026 30.3 855 25.25 11 51.8 34 -4.1 24.7
18:25 1026 30.3 855 25.25 10.8 51.4 35 -4 24.7
18:30 1026 30.3 855 25.25 10.6 51.1 35 -4 24.8
18:35 1026 30.3 856 25.28 10.3 50.5 37 -3.7 25.4
18:40 1026 30.3 856 25.28 9.9 49.7 38 -3.8 25.2
18:45 1026 30.3 856 25.28 9.6 49.3 39 -3.8 25.2
18:50 1026 30.3 856 25.28 9.4 49 39 -3.9 24.9
18:55 1027 30.33 856 25.28 9.3 48.7 39 -3.8 25.2
19:00 1027 30.33 856 25.28 8.9 48.1 42 -3.4 25.9
19:05 1027 30.33 856 25.28 8.2 46.7 44 -3.2 26.2
19:10 1027 30.33 856 25.28 7.8 46 45 -3.5 25.7
19:15 1027 30.33 856 25.28 7.9 46.3 44 -3.5 25.7
19:20 1027 30.33 856 25.28 7.9 46.2 44 -3.5 25.7
19:25 1027 30.33 856 25.28 7.8 46.1 45 -3.4 25.9
19:30 1027 30.33 856 25.28 7.6 45.8 44 -3.8 25.1
19:35 1027 30.33 856 25.28 7.8 46 44 -3.8 25.2
19:40 1027 30.33 856 25.28 7.9 46.2 43 -3.9 24.9
19:45 1027 30.33 856 25.28 8.1 46.6 41 -4.3 24.3
19:50 1027 30.33 857 25.31 8.5 47.2 41 -4.1 24.6
19:55 1027 30.33 857 25.31 8.4 47.2 41 -3.9 24.9
20:00 1027 30.33 857 25.31 8.4 47 41 -4.1 24.7
20:05 1027 30.33 857 25.31 8.4 47 41 -4 24.8
20:10 1027 30.33 857 25.31 8.3 47 42 -3.9 24.9
20:15 1027 30.33 857 25.31 8.1 46.6 42 -4 24.8
20:20 1027 30.33 857 25.31 8 46.3 42 -4 24.8
20:25 1027 30.33 857 25.31 7.8 46.1 42 -4.2 24.4
20:30 1028 30.36 857 25.31 7.8 46.1 43 -3.9 25
20:35 1028 30.36 857 25.31 7.5 45.5 45 -3.7 25.3
20:40 1028 30.36 857 25.31 6.9 44.4 46 -3.9 25
20:45 1028 30.36 857 25.31 6.9 44.4 47 -3.8 25.2
20:50 1028 30.36 857 25.31 6.3 43.4 49 -3.6 25.5
20:55 1028 30.36 857 25.31 5.8 42.4 51 -3.5 25.6
21:00 1028 30.36 857 25.31 5.7 42.3 50 -4 24.8
21:05 1028 30.36 857 25.31 6 42.8 49 -3.9 24.9
21:10 1028 30.36 857 25.31 6.1 43 49 -3.9 25
21:15 1028 30.36 857 25.31 6.1 43 49 -3.9 25
21:20 1028 30.36 857 25.31 6 42.8 49 -3.8 25.2
21:25 1028 30.36 857 25.31 5.8 42.4 51 -3.5 25.6
21:30 1028 30.36 857 25.31 5.5 41.9 51 -3.8 25.2
21:35 1028 30.36 857 25.31 5.6 42.1 51 -3.8 25.1
21:40 1028 30.36 857 25.31 5.7 42.2 50 -3.9 25
21:45 1028 30.36 857 25.31 5.5 41.8 52 -3.7 25.3
21:50 1028 30.36 857 25.31 5.4 41.8 51 -3.9 24.9
21:55 1028 30.36 857 25.31 5.6 42.2 50 -3.8 25.1
22:00 1028 30.36 857 25.31 5.6 42.1 51 -3.8 25.2
22:05 1028 30.36 858 25.34 5.6 42 50 -4.1 24.6
22:10 1028 30.36 858 25.34 5.7 42.3 49 -4.1 24.5
22:15 1028 30.36 858 25.34 5.9 42.7 48 -4.3 24.3
22:20 1029 30.39 858 25.34 6 42.8 48 -4.1 24.6
22:25 1029 30.39 858 25.34 5.5 41.9 53 -3.2 26.2
22:30 1029 30.39 858 25.34 4.7 40.4 53 -4 24.8
22:35 1029 30.39 858 25.34 5.1 41.2 52 -4 24.7
22:40 1029 30.39 858 25.34 5.5 41.8 51 -3.8 25.1
22:45 1029 30.39 858 25.34 5.5 41.9 51 -3.7 25.3
22:50 1029 30.39 858 25.34 5.3 41.6 52 -3.7 25.3
22:55 1029 30.39 858 25.34 4.9 40.9 54 -3.6 25.6
23:00 1029 30.39 858 25.34 4.5 40.1 56 -3.5 25.7
23:05 1029 30.39 858 25.34 4.4 40 55 -3.8 25.1
23:10 1029 30.39 858 25.34 4.5 40.2 55 -3.6 25.5
23:15 1029 30.39 858 25.34 4.4 39.9 56 -3.6 25.4
23:20 1029 30.39 858 25.34 4.2 39.6 56 -3.8 25.2
23:25 1029 30.39 858 25.34 4.2 39.6 57 -3.6 25.5
23:30 1029 30.39 858 25.34 4.1 39.4 55 -4.1 24.7
23:35 1029 30.39 858 25.34 4.7 40.4 54 -3.9 25
23:40 1029 30.39 858 25.34 4.5 40 55 -3.7 25.3
23:45 1029 30.39 858 25.34 4.2 39.6 55 -4 24.9
23:50 1029 30.39 858 25.34 4.2 39.5 55 -4 24.8
23:55 1029 30.39 858 25.34 4.1 39.4 56 -3.9 24.9
24:00 1029 30.39 858 25.34 3.9 39.1 57 -3.8 25.2